This is the latest recevied weather packets stored in our database for station/object KR4ELZ. If no packets are shown the sender has not sent any weather packets the latest 10 day(s).
| Time | Temp. | Humidity | Pressure | Rain* | Wind** | Luminosity | Snow |
|---|---|---|---|---|---|---|---|
| 1777489173 | 21.67° C | 79% | 1013.8 hPa | 0 mm | - | 140 W/m² | - |
| 1777487963 | 21.67° C | 78% | 1014 hPa | 0 mm | - | 173 W/m² | - |
| 1777487660 | 20.56° C | 83% | 1014.4 hPa | 0 mm | - | 636 W/m² | - |
| 1777487357 | 20.56° C | 84% | 1014.4 hPa | 0 mm | - | 206 W/m² | - |
| 1777487055 | 20.56° C | 83% | 1014.3 hPa | 0 mm | - | 97 W/m² | - |
| 1777486750 | 21.11° C | 82% | 1014.3 hPa | 0 mm | - | 118 W/m² | - |
| 1777486145 | 21.67° C | 79% | 1014.4 hPa | 0 mm | - | 732 W/m² | - |
| 1777485842 | 21.67° C | 81% | 1014.5 hPa | 0 mm | - | 761 W/m² | - |
| 1777485538 | 21.67° C | 81% | 1014.5 hPa | 0 mm | - | 390 W/m² | - |
| 1777484324 | 21.67° C | 81% | 1014.2 hPa | 0 mm | - | 609 W/m² | - |
| 1777484020 | 21.11° C | 81% | 1014.5 hPa | 0 mm | - | 239 W/m² | - |
| 1777483717 | 21.67° C | 80% | 1014.2 hPa | 0 mm | - | 98 W/m² | - |
| 1777483108 | 22.22° C | 79% | 1014.5 hPa | 0 mm | - | 715 W/m² | - |
| 1777482805 | 21.67° C | 80% | 1014.3 hPa | 0 mm | - | 642 W/m² | - |
| 1777482501 | 21.11° C | 83% | 1014.4 hPa | 0 mm | - | 230 W/m² | - |
| 1777482199 | 21.67° C | 81% | 1014.3 hPa | 0 mm | - | 191 W/m² | - |
| 1777481896 | 21.67° C | 84% | 1014.3 hPa | 0 mm | - | 203 W/m² | - |
| 1777480683 | 21.11° C | 85% | 1014.1 hPa | 0 mm | - | 200 W/m² | - |
| 1777480380 | 21.11° C | 85% | 1014.3 hPa | 0 mm | - | 86 W/m² | - |
| 1777480075 | 21.11° C | 84% | 1014.5 hPa | 0 mm | - | 151 W/m² | - |
| 1777479772 | 21.11° C | 86% | 1014.5 hPa | 0 mm | - | 510 W/m² | - |
| 1777479470 | 21.67° C | 84% | 1014.4 hPa | 0 mm | - | 294 W/m² | - |
| 1777479166 | 20.56° C | 88% | 1014.3 hPa | 0 mm | - | 473 W/m² | - |
| 1777478864 | 20.56° C | 88% | 1014.3 hPa | 0 mm | - | 545 W/m² | - |
| 1777478559 | 20.56° C | 89% | 1014.1 hPa | 0 mm | - | 104 W/m² | - |
* Rain latest hour (hover to see other rain measurements)
** Current wind speed in m/s (hover to see current wind gust speed)